Details From EGCC - Manchester Intl
To EIKN - Ireland West Airport Knock
Flight Number -
Tags generated
Created
Modified
Stats Distance 235 nm / 436 km
Max Altitude 0 ft / 0 m
Waypoints 5
Social Downloads 2
Likes 0
Share VATSIM

Download

Looking for another format? Having issues loading an existing format? Contact us
Advertisement - Login to hide

Notes

None

Route

EGCC RAMOX UL70 NAVAN EIKN

ID Type Via Altitude Latitude Longitude Leg Dist Tot Dist Heading (true) Name
O EGCC APT - 0 ft / 0 m 53.34714˚ -2.28395˚ - 0 nm - Manchester Intl
RAMOX FIX - 0 ft / 0 m 53.66028˚ -4.83944˚ 93 nm 93 nm 283° / 281° -
BAGSO FIX UL70 (AWY-HI) 0 ft / 0 m 53.68000˚ -5.50000˚ 23 nm 116 nm 273° / 273° -
NAVAN FIX UL70 (AWY-HI) 0 ft / 0 m 53.74722˚ -6.64639˚ 40 nm 157 nm 276° / 275° -
O EIKN APT - 0 ft / 0 m 53.91031˚ -8.81847˚ 77 nm 235 nm 278° / 276° Ireland West Airport Knock

Altitude Profile

Advertisement - Login to hide

Weather


0- 5 10 15 20 25 30 35+ Temperature / ° C

Clouds and Precipitation
Forecast for 2018-05-24 12:00 UTC. Updated 3 hours ago

Ground ~20,000 ft ~40,000 ft Winds

EGCC

Details ICAO EGCC (MAN)
Name Manchester Intl
Region United Kingdom
Timezone Europe/London (UTC+1.0)
Stats Elevation 257 ft / 78 m (AMSL)
Location 53.347141° -2.283954°
Runways 2
Magnetic Variation 1.392° W

METAR

EGCC 241350Z AUTO 06009KT 030V100 9999 NCD 21/11 Q1021

Decode

TAF

TAF EGCC 241103Z 2412/2518 04007KT 9999 FEW040 TEMPO 2503/2518 7000 SHRA BKN012 PROB40 TEMPO 2504/2511 3000 +SHRA

Decode

Departure Runways

ID Width Length Bearing (true) Bearing (mag) Surface Threshold Offset Overrun Length
05L 151 ft / 46 m 9,981 ft / 3,042 m 50.99° 52.38° Asphalt 1,401 ft / 427 m 0 ft / 0 m
05R 151 ft / 46 m 9,952 ft / 3,033 m 50.97° 52.36° Asphalt 0 ft / 0 m 26 ft / 8 m
23L 151 ft / 46 m 9,952 ft / 3,033 m 231.00° 232.39° Asphalt 561 ft / 171 m 0 ft / 0 m
23R 151 ft / 46 m 9,981 ft / 3,042 m 231.02° 232.41° Asphalt 597 ft / 182 m 0 ft / 0 m

EIKN

Details ICAO EIKN (NOC)
Name Ireland West Airport Knock
Region Ireland
Timezone Europe/Dublin (UTC+1.0)
Stats Elevation 665 ft / 203 m (AMSL)
Location 53.910306° -8.818474°
Runways 1
Magnetic Variation 4.087° W

METAR

EIKN 241400Z VRB02KT 9999 FEW030 SCT042 20/10 Q1022 NOSIG

Decode

TAF

TAF EIKN 241100Z 2412/2512 VRB03KT 9999 FEW025 BECMG 2415/2417 36012KT PROB30 TEMPO 2415/2418 -SHRA FEW020CB SCT030 TEMPO 2501/2506 36007KT 4000 BR BKN005

Decode

Destination Runways

ID Width Length Bearing (true) Bearing (mag) Surface Threshold Offset Overrun Length
09 148 ft / 45 m 7,513 ft / 2,290 m 78.74° 82.83° Asphalt 482 ft / 147 m 0 ft / 0 m
27 148 ft / 45 m 7,513 ft / 2,290 m 258.76° 262.85° Asphalt 0 ft / 0 m 0 ft / 0 m

Approach Navaids

Runway Type Ident Frequency Range Bearing (true) Bearing (mag) Slope Elevation
27 Localiser ICK 110.70 MHz 18 nm / 33 km 258.69° 262.78° - 593 ft / 181 m (AMSL)
27 Glidescope ICK 110.70 MHz 10 nm / 19 km 258.75° 262.84° 3.00° 688 ft / 210 m (AMSL)

Popular Alternatives